Time;durP1;ratioP1;P1;durP2;ratioP2;P2;SDS_P1;SDS_P2;PMS_P1;PMS_P2;Temp;Humidity;BMP_temperature;BMP_pressure;BME280_temperature;BME280_humidity;BME280_pressure;Samples;Min_cycle;Max_cycle;Signal;HPM_P1;HPM_P2
2022/10/26 00:01:28;;;;;;;11.30;6.40;;;11.60;99.90;;;;;;5067424;28;20075;-84
2022/10/26 00:03:55;;;;;;;12.75;7.07;;;11.60;99.90;;;;;;5068695;28;20046;-84
2022/10/26 00:06:29;;;;;;;12.45;7.07;;;11.60;99.90;;;;;;5067865;28;20048;-84
2022/10/26 00:08:56;;;;;;;11.18;6.63;;;11.50;99.90;;;;;;5068725;28;20132;-84
2022/10/26 00:11:22;;;;;;;13.77;7.80;;;11.50;99.90;;;;;;5067999;28;20043;-84
2022/10/26 00:13:48;;;;;;;14.90;7.18;;;11.50;99.90;;;;;;5068694;28;20043;-83
2022/10/26 00:16:20;;;;;;;14.85;8.20;;;11.50;99.90;;;;;;5068674;28;20028;-84
2022/10/26 00:18:47;;;;;;;12.43;7.05;;;11.50;99.90;;;;;;5048483;28;20039;-84
2022/10/26 00:21:12;;;;;;;13.40;6.80;;;11.40;99.90;;;;;;5051790;28;20066;-84
2022/10/26 00:23:38;;;;;;;15.45;11.05;;;11.40;99.90;;;;;;5068466;28;20119;-84
2022/10/26 00:26:04;;;;;;;14.95;6.75;;;11.50;99.90;;;;;;5054233;28;20041;-84
2022/10/26 00:28:30;;;;;;;14.10;7.30;;;11.50;99.90;;;;;;5072532;28;20075;-84
2022/10/26 00:31:03;;;;;;;12.82;6.90;;;11.40;99.90;;;;;;5071681;28;20076;-84
2022/10/26 00:33:29;;;;;;;12.02;6.53;;;11.40;99.90;;;;;;5072431;28;20032;-84
2022/10/26 00:35:55;;;;;;;13.02;6.70;;;11.30;99.90;;;;;;5055636;28;20071;-84
2022/10/26 00:38:21;;;;;;;11.52;6.78;;;11.30;99.90;;;;;;5071844;28;20040;-84
2022/10/26 00:40:47;;;;;;;13.15;7.82;;;11.20;99.90;;;;;;5072273;28;20413;-84
2022/10/26 00:43:33;;;;;;;14.23;6.63;;;11.30;99.90;;;;;;5071552;28;20044;-84
2022/10/26 00:46:00;;;;;;;15.20;7.55;;;11.20;99.90;;;;;;5072026;28;20083;-84
2022/10/26 00:48:28;;;;;;;16.20;12.73;;;11.20;99.90;;;;;;5071968;28;20037;-84
2022/10/26 00:50:57;;;;;;;17.40;7.07;;;11.30;99.90;;;;;;5071409;28;20041;-84
2022/10/26 00:53:23;;;;;;;12.95;7.07;;;11.30;99.90;;;;;;5055196;28;20498;-84
2022/10/26 00:55:51;;;;;;;12.25;7.10;;;11.20;99.90;;;;;;5054522;28;20035;-84
2022/10/26 00:58:18;;;;;;;13.75;7.25;;;11.10;99.90;;;;;;5072157;28;20485;-84
2022/10/26 01:00:44;;;;;;;11.82;6.47;;;11.10;99.90;;;;;;5071239;28;20056;-84
2022/10/26 01:03:10;;;;;;;12.10;6.88;;;11.10;99.90;;;;;;5071386;28;20044;-84
2022/10/26 01:05:39;;;;;;;18.45;7.82;;;11.00;99.90;;;;;;5071421;28;20041;-84
2022/10/26 01:08:07;;;;;;;14.18;7.03;;;11.00;99.90;;;;;;5054638;28;20055;-84
2022/10/26 01:10:34;;;;;;;14.60;6.53;;;11.00;99.90;;;;;;5071833;28;20032;-84
2022/10/26 01:13:01;;;;;;;15.35;7.32;;;11.00;99.90;;;;;;5054342;28;20067;-84
2022/10/26 01:16:02;;;;;;;13.85;6.95;;;11.00;99.90;;;;;;5055071;28;20140;-84
2022/10/26 01:18:31;;;;;;;14.38;12.52;;;10.90;99.90;;;;;;5051983;28;20059;-84
2022/10/26 01:21:18;;;;;;;13.88;7.00;;;11.00;99.90;;;;;;5071546;28;20098;-84
2022/10/26 01:24:14;;;;;;;14.88;7.25;;;11.00;99.90;;;;;;5071039;28;20051;-84
2022/10/26 01:27:02;;;;;;;14.07;7.43;;;10.90;99.90;;;;;;5056472;28;20043;-83
2022/10/26 01:29:58;;;;;;;15.23;7.47;;;10.80;99.90;;;;;;5070756;28;20037;-83
2022/10/26 01:32:44;;;;;;;14.68;8.20;;;10.80;99.90;;;;;;5047208;28;20094;-84
2022/10/26 01:35:31;;;;;;;16.33;13.00;;;10.80;99.90;;;;;;5071519;28;20037;-84
2022/10/26 01:38:01;;;;;;;16.73;8.68;;;10.90;99.90;;;;;;5063631;28;20036;-84
2022/10/26 01:40:36;;;;;;;13.43;7.30;;;10.80;99.90;;;;;;5054674;28;20127;-84
2022/10/26 01:43:06;;;;;;;14.02;7.53;;;10.80;99.90;;;;;;5070257;28;20093;-83
2022/10/26 01:45:33;;;;;;;10.90;6.13;;;10.70;99.90;;;;;;5070645;28;20040;-83
2022/10/26 01:48:01;;;;;;;14.10;7.13;;;10.70;99.90;;;;;;5070845;28;20085;-83
2022/10/26 01:50:28;;;;;;;13.95;7.00;;;10.70;99.90;;;;;;5070638;28;20055;-83
2022/10/26 01:52:53;;;;;;;17.95;8.30;;;10.60;99.90;;;;;;5054128;28;20065;-84
2022/10/26 01:55:31;;;;;;;14.45;8.38;;;10.60;99.90;;;;;;5070149;28;20119;-83
2022/10/26 01:58:07;;;;;;;15.02;7.10;;;10.60;99.90;;;;;;5054287;28;20048;-84
2022/10/26 02:00:36;;;;;;;16.02;8.15;;;10.60;99.90;;;;;;5053453;28;20033;-83
2022/10/26 02:03:23;;;;;;;14.32;8.40;;;10.60;99.90;;;;;;5070498;28;20036;-84
2022/10/26 02:06:13;;;;;;;16.50;8.32;;;10.60;99.90;;;;;;5069488;28;20506;-83
2022/10/26 02:08:42;;;;;;;14.70;8.20;;;10.60;99.90;;;;;;5070962;28;20094;-84
2022/10/26 02:11:29;;;;;;;16.63;8.13;;;10.50;99.90;;;;;;5053465;28;20032;-83
2022/10/26 02:14:11;;;;;;;14.73;8.23;;;10.50;99.90;;;;;;5070584;28;20062;-83
2022/10/26 02:16:57;;;;;;;14.20;8.00;;;10.50;99.90;;;;;;5070730;28;20032;-83
2022/10/26 02:19:51;;;;;;;18.35;9.27;;;10.50;99.90;;;;;;5069613;28;20826;-83
2022/10/26 02:22:28;;;;;;;17.60;8.57;;;10.50;99.90;;;;;;5070503;28;20044;-83
2022/10/26 02:24:56;;;;;;;14.43;8.77;;;10.40;99.90;;;;;;5069574;28;20028;-83
2022/10/26 02:27:26;;;;;;;13.40;7.53;;;10.40;99.90;;;;;;5070104;28;20041;-83
2022/10/26 02:29:54;;;;;;;13.70;8.38;;;10.50;99.90;;;;;;5052485;28;20419;-83
2022/10/26 02:32:23;;;;;;;14.13;7.85;;;10.50;99.90;;;;;;5069319;28;20075;-83
2022/10/26 02:34:51;;;;;;;12.43;7.78;;;10.40;99.90;;;;;;5070413;28;20120;-83
2022/10/26 02:37:20;;;;;;;12.20;6.97;;;10.40;99.90;;;;;;5069612;28;20047;-83
2022/10/26 02:39:49;;;;;;;15.27;8.55;;;10.40;99.90;;;;;;5069873;28;20044;-83
2022/10/26 02:42:17;;;;;;;14.40;8.00;;;10.40;99.90;;;;;;5069815;28;20037;-83
2022/10/26 02:44:48;;;;;;;14.95;8.32;;;10.40;99.90;;;;;;5052307;28;20036;-83
2022/10/26 02:47:14;;;;;;;15.23;8.20;;;10.40;99.90;;;;;;5033320;28;20098;-84
2022/10/26 02:49:40;;;;;;;14.93;8.73;;;10.40;99.90;;;;;;5033193;28;20494;-83
2022/10/26 02:52:30;;;;;;;15.05;8.93;;;10.40;99.90;;;;;;5060847;28;20029;-83
2022/10/26 02:55:03;;;;;;;19.38;8.80;;;10.40;99.90;;;;;;5070230;28;20516;-83
2022/10/26 02:57:40;;;;;;;16.88;9.30;;;10.40;99.90;;;;;;5052218;28;20464;-83
2022/10/26 03:00:08;;;;;;;15.77;7.82;;;10.40;99.90;;;;;;5052353;28;20055;-83
2022/10/26 03:02:34;;;;;;;19.23;9.45;;;10.40;99.90;;;;;;5069676;28;20456;-84
2022/10/26 03:05:09;;;;;;;15.48;8.57;;;10.40;99.90;;;;;;5068020;28;20420;-83
2022/10/26 03:07:34;;;;;;;18.45;9.10;;;10.40;99.90;;;;;;5053549;28;20089;-84
2022/10/26 03:10:00;;;;;;;16.85;8.40;;;10.40;99.90;;;;;;5052128;28;20037;-83
2022/10/26 03:12:25;;;;;;;14.68;8.48;;;10.30;99.90;;;;;;5068835;28;20431;-83
2022/10/26 03:14:51;;;;;;;14.45;9.02;;;10.30;99.90;;;;;;5069577;28;20036;-83
2022/10/26 03:17:16;;;;;;;16.85;9.00;;;10.30;99.90;;;;;;5051699;28;20402;-83
2022/10/26 03:19:42;;;;;;;17.77;9.15;;;10.30;99.90;;;;;;5052844;28;20397;-83
2022/10/26 03:22:08;;;;;;;18.98;9.38;;;10.30;99.90;;;;;;5051509;28;20640;-84
2022/10/26 03:24:33;;;;;;;17.30;9.57;;;10.30;99.90;;;;;;5068238;28;20033;-84
2022/10/26 03:26:59;;;;;;;15.20;8.95;;;10.30;99.90;;;;;;5051540;28;20036;-83
2022/10/26 03:29:24;;;;;;;21.00;10.45;;;10.30;99.90;;;;;;5066054;28;20049;-83
2022/10/26 03:31:53;;;;;;;18.38;8.90;;;10.40;99.90;;;;;;5067866;28;20520;-83
2022/10/26 03:34:19;;;;;;;16.88;9.20;;;10.30;99.90;;;;;;5068215;28;20043;-83
2022/10/26 03:36:45;;;;;;;16.83;8.93;;;10.30;99.90;;;;;;5068711;28;20072;-83
2022/10/26 03:39:10;;;;;;;15.07;8.98;;;10.30;99.90;;;;;;5069377;28;20072;-83
2022/10/26 03:41:36;;;;;;;15.00;8.75;;;10.40;99.90;;;;;;5068734;28;20050;-83
2022/10/26 03:44:01;;;;;;;15.02;9.23;;;10.30;99.90;;;;;;5052478;28;20097;-83
2022/10/26 03:46:27;;;;;;;16.58;9.07;;;10.30;99.90;;;;;;5051151;28;20044;-83
2022/10/26 03:48:52;;;;;;;16.20;9.30;;;10.30;99.90;;;;;;5052424;28;20048;-83
2022/10/26 03:51:18;;;;;;;18.45;9.63;;;10.30;99.90;;;;;;5051937;28;20041;-83
2022/10/26 03:53:43;;;;;;;16.33;9.77;;;10.30;99.90;;;;;;5068174;28;20037;-83
2022/10/26 03:56:09;;;;;;;16.83;8.75;;;10.30;99.90;;;;;;5068867;28;20036;-83
2022/10/26 03:58:34;;;;;;;17.70;9.27;;;10.30;99.90;;;;;;5071687;28;20051;-83
2022/10/26 04:01:00;;;;;;;17.33;9.65;;;10.30;99.90;;;;;;5054652;28;20105;-83
2022/10/26 04:03:25;;;;;;;15.52;9.57;;;10.30;99.90;;;;;;5072879;28;20573;-83
2022/10/26 04:05:51;;;;;;;14.32;8.98;;;10.30;99.90;;;;;;5072593;28;20047;-83
2022/10/26 04:08:16;;;;;;;19.15;9.35;;;10.30;99.90;;;;;;5072922;28;20413;-83
2022/10/26 04:10:44;;;;;;;15.68;10.02;;;10.30;99.90;;;;;;5072320;28;20033;-83
2022/10/26 04:13:10;;;;;;;16.52;9.25;;;10.20;99.90;;;;;;5071973;28;20510;-83
2022/10/26 04:15:36;;;;;;;16.33;9.07;;;10.20;99.90;;;;;;5071862;28;20071;-83
2022/10/26 04:18:02;;;;;;;17.02;8.52;;;10.20;99.90;;;;;;5054495;28;20036;-83
2022/10/26 04:20:30;;;;;;;16.25;8.93;;;10.30;99.90;;;;;;5071908;28;20761;-83
2022/10/26 04:23:01;;;;;;;14.63;8.63;;;10.30;99.90;;;;;;5071539;28;20075;-83
2022/10/26 04:25:27;;;;;;;17.40;10.18;;;10.30;99.90;;;;;;5071277;28;20175;-83
2022/10/26 04:27:52;;;;;;;14.30;8.57;;;10.30;99.90;;;;;;5072029;28;20127;-83
2022/10/26 04:30:18;;;;;;;16.50;8.68;;;10.30;99.90;;;;;;5071102;28;20490;-83
2022/10/26 04:32:44;;;;;;;14.63;8.73;;;10.30;99.90;;;;;;5072396;28;20032;-83
2022/10/26 04:35:09;;;;;;;15.07;8.73;;;10.30;99.90;;;;;;5072439;28;20041;-83
2022/10/26 04:37:35;;;;;;;14.95;7.80;;;10.30;99.90;;;;;;5072147;28;20510;-84
2022/10/26 04:40:00;;;;;;;17.02;8.38;;;10.30;99.90;;;;;;5072280;28;20501;-83
2022/10/26 04:42:26;;;;;;;14.77;8.13;;;10.40;99.90;;;;;;5071435;28;20536;-83
2022/10/26 04:44:51;;;;;;;16.00;8.73;;;10.40;99.90;;;;;;5072334;28;20051;-83
2022/10/26 04:47:17;;;;;;;16.10;8.88;;;10.40;99.90;;;;;;5055691;28;20040;-83
2022/10/26 04:49:42;;;;;;;15.52;8.75;;;10.40;99.90;;;;;;5071430;28;20059;-83
2022/10/26 04:52:08;;;;;;;19.48;8.82;;;10.40;99.90;;;;;;5054989;28;20048;-83
2022/10/26 04:54:33;;;;;;;15.23;8.48;;;10.50;99.90;;;;;;5073487;28;20036;-83
2022/10/26 04:56:59;;;;;;;16.67;8.73;;;10.50;99.90;;;;;;5071653;28;20459;-83
2022/10/26 04:59:24;;;;;;;17.42;9.43;;;10.50;99.90;;;;;;5054757;28;20505;-83
2022/10/26 05:01:50;;;;;;;18.38;9.43;;;10.50;99.90;;;;;;5071308;28;20036;-83
2022/10/26 05:04:16;;;;;;;15.07;7.50;;;10.60;99.90;;;;;;5071239;28;20048;-83
2022/10/26 05:06:41;;;;;;;17.42;8.32;;;10.60;99.90;;;;;;5071624;28;20041;-83
2022/10/26 05:09:07;;;;;;;14.70;8.05;;;10.60;99.90;;;;;;5071301;28;20039;-83
2022/10/26 05:11:32;;;;;;;15.95;8.88;;;10.60;99.90;;;;;;5054535;28;20634;-83
2022/10/26 05:13:58;;;;;;;15.25;8.48;;;10.60;99.90;;;;;;5071514;28;20036;-83
2022/10/26 05:16:23;;;;;;;15.95;7.97;;;10.60;99.90;;;;;;5071484;28;20044;-83
2022/10/26 05:18:49;;;;;;;15.80;8.48;;;10.70;99.90;;;;;;5055422;28;20036;-83
2022/10/26 05:21:18;;;;;;;14.63;8.25;;;10.70;99.90;;;;;;5070500;28;20036;-84
2022/10/26 05:23:50;;;;;;;14.38;8.23;;;10.70;99.90;;;;;;5071400;28;20036;-84
2022/10/26 05:26:16;;;;;;;16.30;7.93;;;10.70;99.90;;;;;;5070770;28;20464;-83
2022/10/26 05:28:41;;;;;;;17.27;8.63;;;10.70;99.90;;;;;;5055065;28;20047;-84
2022/10/26 05:31:07;;;;;;;16.15;7.80;;;10.70;99.90;;;;;;5069798;28;20403;-83
2022/10/26 05:33:32;;;;;;;17.48;9.45;;;10.70;99.90;;;;;;5071302;28;20520;-84
2022/10/26 05:35:58;;;;;;;17.85;9.13;;;10.70;99.90;;;;;;5071353;28;20526;-83
2022/10/26 05:38:23;;;;;;;16.05;8.45;;;10.70;99.90;;;;;;5071337;28;20036;-84
2022/10/26 05:40:51;;;;;;;15.38;8.57;;;10.70;99.90;;;;;;5053688;28;20032;-83
2022/10/26 05:43:16;;;;;;;18.25;9.98;;;10.70;99.90;;;;;;5071046;28;20041;-84
2022/10/26 05:45:42;;;;;;;15.40;8.65;;;10.80;99.90;;;;;;5053873;28;20066;-84
2022/10/26 05:48:08;;;;;;;16.33;8.32;;;10.80;99.90;;;;;;5070583;28;20049;-84
2022/10/26 05:50:33;;;;;;;17.13;7.72;;;10.80;99.90;;;;;;5070288;28;20041;-84
2022/10/26 05:52:59;;;;;;;15.57;8.55;;;10.80;99.90;;;;;;5070453;28;20075;-84
2022/10/26 05:55:25;;;;;;;13.48;8.23;;;10.80;99.90;;;;;;5070916;28;20511;-84
2022/10/26 05:57:51;;;;;;;15.95;7.25;;;10.80;99.90;;;;;;5053864;28;20064;-83
2022/10/26 06:00:22;;;;;;;13.88;7.55;;;10.80;99.90;;;;;;5069067;28;20040;-84
2022/10/26 06:03:25;;;;;;;15.55;8.45;;;10.80;99.90;;;;;;5070124;28;20119;-84
2022/10/26 06:05:56;;;;;;;13.07;6.80;;;10.80;99.90;;;;;;5050660;28;20097;-84
2022/10/26 06:08:24;;;;;;;13.68;7.03;;;10.80;99.90;;;;;;5034923;28;20441;-84
2022/10/26 06:10:50;;;;;;;19.02;7.80;;;10.80;99.90;;;;;;5053170;28;20410;-84
2022/10/26 06:13:16;;;;;;;13.13;7.00;;;10.80;99.90;;;;;;5053975;28;20093;-84
2022/10/26 06:16:10;;;;;;;13.18;8.18;;;10.90;99.90;;;;;;5069887;28;20064;-84
2022/10/26 06:18:44;;;;;;;13.00;7.10;;;10.90;99.90;;;;;;5053897;28;20052;-83
2022/10/26 06:21:39;;;;;;;15.32;7.72;;;10.90;99.90;;;;;;5068401;28;20044;-84
2022/10/26 06:24:37;;;;;;;14.38;7.78;;;10.90;99.90;;;;;;5053510;28;20044;-84
2022/10/26 06:27:30;;;;;;;13.93;7.10;;;10.90;99.90;;;;;;5068855;28;20094;-84
2022/10/26 06:30:06;;;;;;;11.82;6.13;;;10.90;99.90;;;;;;5069115;28;20044;-84
2022/10/26 06:32:32;;;;;;;12.52;6.88;;;10.90;99.90;;;;;;5067746;28;20036;-84
2022/10/26 06:35:23;;;;;;;14.02;7.10;;;10.90;99.90;;;;;;5068628;28;20055;-84
2022/10/26 06:37:51;;;;;;;12.40;6.88;;;10.90;99.90;;;;;;5062714;28;20080;-83
2022/10/26 06:40:17;;;;;;;12.18;6.20;;;10.90;99.90;;;;;;5052038;28;20044;-83
2022/10/26 06:42:43;;;;;;;13.40;7.05;;;10.90;99.90;;;;;;5068847;28;20379;-84
2022/10/26 06:45:13;;;;;;;14.23;7.00;;;10.90;99.90;;;;;;5052180;28;20037;-84
2022/10/26 06:47:53;;;;;;;14.60;7.10;;;11.00;99.90;;;;;;5069633;28;20040;-84
2022/10/26 06:50:37;;;;;;;11.88;6.28;;;10.90;99.90;;;;;;5052075;28;20072;-84
2022/10/26 06:53:15;;;;;;;13.60;6.63;;;11.00;99.90;;;;;;5069423;28;20123;-84
2022/10/26 06:55:43;;;;;;;12.38;6.45;;;11.00;99.90;;;;;;5068733;28;20448;-84
2022/10/26 06:58:18;;;;;;;12.73;6.72;;;11.00;99.90;;;;;;5069310;28;20094;-84
2022/10/26 07:00:46;;;;;;;11.80;6.38;;;11.00;99.90;;;;;;5067411;28;20085;-84
2022/10/26 07:03:12;;;;;;;15.38;6.88;;;11.00;99.90;;;;;;5052473;28;20033;-84
2022/10/26 07:05:38;;;;;;;13.40;6.32;;;11.10;99.90;;;;;;5052723;28;20042;-84
2022/10/26 07:08:04;;;;;;;10.95;6.25;;;11.10;99.90;;;;;;5069212;28;20512;-84
2022/10/26 07:10:29;;;;;;;13.52;6.30;;;11.10;99.90;;;;;;5066474;28;20037;-84
2022/10/26 07:12:55;;;;;;;11.30;6.05;;;11.10;99.90;;;;;;5052187;28;20529;-84
2022/10/26 07:15:21;;;;;;;14.77;6.30;;;11.10;99.90;;;;;;5052184;28;20055;-84
2022/10/26 07:17:48;;;;;;;11.02;5.88;;;11.10;99.90;;;;;;5068708;28;20040;-84
2022/10/26 07:20:15;;;;;;;12.27;5.40;;;11.10;99.90;;;;;;5052311;28;20044;-84
2022/10/26 07:22:41;;;;;;;10.75;6.05;;;11.10;99.90;;;;;;5051323;28;20044;-84
2022/10/26 07:25:08;;;;;;;14.57;5.38;;;11.10;99.90;;;;;;5069155;28;20501;-84
2022/10/26 07:27:34;;;;;;;13.20;6.57;;;11.20;99.90;;;;;;5051352;28;20036;-84
2022/10/26 07:30:00;;;;;;;14.30;5.72;;;11.20;99.90;;;;;;5052747;28;20044;-84
2022/10/26 07:32:26;;;;;;;10.98;5.88;;;11.20;99.90;;;;;;5070962;28;20627;-84
2022/10/26 07:34:51;;;;;;;10.10;5.43;;;11.30;99.90;;;;;;5056038;28;20033;-84
2022/10/26 07:37:17;;;;;;;12.75;6.05;;;11.30;99.90;;;;;;5073005;28;20120;-84
2022/10/26 07:39:42;;;;;;;13.68;6.05;;;11.40;99.90;;;;;;5072532;28;20079;-84
2022/10/26 07:42:08;;;;;;;10.98;5.57;;;11.40;99.90;;;;;;5072894;28;20517;-84
2022/10/26 07:44:34;;;;;;;10.88;5.88;;;11.50;99.90;;;;;;5071637;28;20036;-84
2022/10/26 07:46:59;;;;;;;11.73;5.68;;;11.50;99.90;;;;;;5071986;28;20029;-84
2022/10/26 07:49:25;;;;;;;11.70;6.35;;;11.60;99.90;;;;;;5056500;28;20032;-84
2022/10/26 07:51:51;;;;;;;12.48;6.10;;;11.60;99.90;;;;;;5071465;28;20040;-84
2022/10/26 07:54:16;;;;;;;10.85;5.43;;;11.70;99.90;;;;;;5056348;28;20036;-84
2022/10/26 07:56:42;;;;;;;11.13;5.13;;;11.70;99.90;;;;;;5072776;28;20044;-84
2022/10/26 07:59:09;;;;;;;13.68;8.95;;;11.70;99.90;;;;;;5071807;28;20036;-84
2022/10/26 08:01:35;;;;;;;12.68;6.13;;;11.80;99.90;;;;;;5071219;28;20044;-84
2022/10/26 08:04:01;;;;;;;13.18;5.68;;;11.80;99.90;;;;;;5072169;28;20538;-84
2022/10/26 08:06:26;;;;;;;9.40;4.90;;;11.90;99.90;;;;;;5072819;28;20637;-84
2022/10/26 08:08:52;;;;;;;11.18;6.07;;;11.90;99.90;;;;;;5071430;28;20094;-84
2022/10/26 08:11:18;;;;;;;11.60;5.53;;;12.00;99.90;;;;;;5070268;28;20037;-84
2022/10/26 08:13:43;;;;;;;10.63;5.20;;;12.00;99.90;;;;;;5071572;28;20033;-84
2022/10/26 08:16:09;;;;;;;11.38;5.40;;;12.00;99.90;;;;;;5055058;28;20045;-84
2022/10/26 08:18:35;;;;;;;11.95;5.38;;;12.10;99.90;;;;;;5071582;28;20055;-84
2022/10/26 08:21:06;;;;;;;13.65;5.80;;;12.10;99.90;;;;;;5055541;28;20033;-84
2022/10/26 08:23:32;;;;;;;11.13;5.25;;;12.10;99.90;;;;;;5054428;28;20036;-84
2022/10/26 08:25:58;;;;;;;11.20;5.28;;;12.20;99.90;;;;;;5071764;28;20048;-84
2022/10/26 08:28:24;;;;;;;11.07;5.57;;;12.30;99.90;;;;;;5053223;28;20451;-84
2022/10/26 08:30:50;;;;;;;11.88;8.02;;;12.30;99.90;;;;;;5070417;28;20551;-84
2022/10/26 08:33:15;;;;;;;13.82;8.27;;;12.50;99.90;;;;;;5053756;28;20090;-84
2022/10/26 08:35:41;;;;;;;11.85;6.05;;;12.70;99.90;;;;;;5070629;28;20109;-84
2022/10/26 08:38:07;;;;;;;13.57;5.38;;;12.70;99.90;;;;;;5054389;28;20110;-84
2022/10/26 08:40:37;;;;;;;11.73;5.40;;;12.80;99.90;;;;;;5053956;28;20036;-84
2022/10/26 08:43:28;;;;;;;12.52;5.90;;;12.90;99.90;;;;;;5070577;28;20140;-84
2022/10/26 08:46:09;;;;;;;11.27;5.13;;;12.90;99.90;;;;;;5053805;28;20111;-84
2022/10/26 08:48:43;;;;;;;11.48;7.07;;;12.90;99.90;;;;;;5050571;28;20545;-84
2022/10/26 08:51:15;;;;;;;16.98;7.28;;;13.10;99.90;;;;;;5050916;28;20438;-84
2022/10/26 08:54:04;;;;;;;9.27;5.28;;;13.20;99.90;;;;;;5070380;28;20044;-84
2022/10/26 08:56:46;;;;;;;9.57;5.15;;;13.20;99.90;;;;;;5071527;28;20048;-84
2022/10/26 08:59:30;;;;;;;9.55;4.95;;;13.20;99.90;;;;;;5070720;28;20473;-84
2022/10/26 09:01:56;;;;;;;8.57;4.93;;;13.30;99.90;;;;;;5070958;28;20055;-84
2022/10/26 09:04:26;;;;;;;12.68;7.97;;;13.40;99.90;;;;;;5071015;28;20044;-84
2022/10/26 09:06:56;;;;;;;11.35;5.53;;;13.60;99.90;;;;;;5071499;28;20040;-84
2022/10/26 09:09:37;;;;;;;10.50;5.38;;;13.70;99.90;;;;;;5070366;28;20044;-84
2022/10/26 09:12:33;;;;;;;12.38;7.18;;;13.80;99.90;;;;;;5070665;28;20098;-84
2022/10/26 09:15:17;;;;;;;13.48;7.57;;;13.90;99.90;;;;;;5070710;28;20037;-84
2022/10/26 09:18:12;;;;;;;11.15;5.43;;;14.10;99.90;;;;;;5053392;28;20032;-84
2022/10/26 09:21:11;;;;;;;9.35;7.00;;;14.10;99.90;;;;;;5030851;28;20447;-84
2022/10/26 09:23:52;;;;;;;13.05;5.28;;;14.30;99.90;;;;;;5050044;28;20689;-84
2022/10/26 09:26:37;;;;;;;10.60;4.97;;;14.40;99.90;;;;;;5054216;28;20040;-84
2022/10/26 09:29:10;;;;;;;12.18;7.30;;;14.50;99.90;;;;;;5070511;28;20426;-85
2022/10/26 09:31:43;;;;;;;12.35;4.32;;;14.60;99.90;;;;;;5053757;28;20041;-85
2022/10/26 09:34:25;;;;;;;12.20;6.28;;;14.70;99.90;;;;;;5070735;28;20041;-85
2022/10/26 09:36:55;;;;;;;9.97;3.77;;;14.90;99.90;;;;;;5070799;28;20398;-85
2022/10/26 09:39:34;;;;;;;10.75;4.97;;;14.90;99.90;;;;;;5070059;28;20274;-85
2022/10/26 09:42:10;;;;;;;9.65;5.38;;;15.10;99.90;;;;;;5070556;28;20075;-84
2022/10/26 09:44:57;;;;;;;10.18;4.85;;;15.20;99.90;;;;;;5053787;28;20246;-85
2022/10/26 09:47:36;;;;;;;11.25;5.43;;;15.20;99.90;;;;;;5070252;28;20044;-84
2022/10/26 09:50:17;;;;;;;10.93;5.43;;;15.40;99.90;;;;;;5069532;28;20050;-84
2022/10/26 09:52:43;;;;;;;11.38;5.50;;;15.50;99.90;;;;;;5067334;28;20029;-85
2022/10/26 09:55:12;;;;;;;10.38;4.60;;;15.60;99.90;;;;;;5071365;28;20047;-85
2022/10/26 09:57:45;;;;;;;9.27;3.58;;;15.80;99.90;;;;;;5053072;28;20140;-85
2022/10/26 10:00:15;;;;;;;10.02;3.58;;;15.90;99.90;;;;;;5053240;28;20072;-85
2022/10/26 10:02:47;;;;;;;9.10;3.85;;;16.00;99.90;;;;;;5070222;28;20590;-85
2022/10/26 10:05:33;;;;;;;8.70;3.20;;;16.30;99.90;;;;;;5069181;28;20046;-85
2022/10/26 10:08:16;;;;;;;11.35;3.92;;;16.40;99.90;;;;;;5067593;28;20060;-85
2022/10/26 10:11:00;;;;;;;9.43;3.95;;;16.60;99.90;;;;;;5066521;28;20029;-85
2022/10/26 10:13:29;;;;;;;9.48;3.60;;;16.80;99.90;;;;;;5052469;28;20055;-85
2022/10/26 10:16:20;;;;;;;9.65;3.80;;;16.80;99.90;;;;;;5067326;28;20035;-85
2022/10/26 10:18:55;;;;;;;7.68;2.92;;;17.00;99.90;;;;;;5067801;28;20119;-85
2022/10/26 10:21:37;;;;;;;10.55;3.03;;;17.10;99.90;;;;;;5050670;28;20045;-84
2022/10/26 10:24:31;;;;;;;8.65;2.85;;;17.20;99.90;;;;;;5067505;28;20040;-85
2022/10/26 10:27:00;;;;;;;8.38;2.88;;;17.20;99.90;;;;;;5052895;28;20040;-85
2022/10/26 10:29:31;;;;;;;7.75;2.85;;;17.30;99.90;;;;;;5068683;28;20032;-85
2022/10/26 10:31:59;;;;;;;7.93;2.88;;;17.40;99.90;;;;;;5051497;28;20036;-85
2022/10/26 10:34:25;;;;;;;9.55;3.53;;;17.50;99.90;;;;;;5053288;28;20371;-85
2022/10/26 10:36:51;;;;;;;9.02;3.17;;;17.60;99.90;;;;;;5052335;28;20043;-85
2022/10/26 10:39:46;;;;;;;7.70;2.95;;;17.70;99.90;;;;;;5052620;28;20075;-85
2022/10/26 10:42:19;;;;;;;8.65;3.13;;;17.90;99.90;;;;;;5026938;28;20057;-85
2022/10/26 10:44:50;;;;;;;10.38;3.20;;;17.90;99.90;;;;;;4995686;28;20407;-85
2022/10/26 10:47:24;;;;;;;9.02;3.35;;;17.90;99.90;;;;;;5011103;28;20204;-85
2022/10/26 10:50:06;;;;;;;10.18;3.38;;;18.00;99.90;;;;;;5011974;28;20621;-85
2022/10/26 10:52:33;;;;;;;9.82;3.40;;;18.00;99.90;;;;;;4994093;28;20046;-85
2022/10/26 10:55:20;;;;;;;9.80;3.10;;;18.00;99.90;;;;;;5011226;28;20034;-85
2022/10/26 10:57:46;;;;;;;10.82;3.58;;;18.20;99.90;;;;;;4995576;28;20084;-85
2022/10/26 11:00:12;;;;;;;9.10;3.45;;;18.20;99.90;;;;;;4995454;28;20089;-85
2022/10/26 11:03:04;;;;;;;9.50;3.25;;;18.30;99.90;;;;;;4994556;28;20143;-85
2022/10/26 11:05:41;;;;;;;10.80;3.20;;;18.40;99.90;;;;;;4989501;28;20053;-85
2022/10/26 11:08:22;;;;;;;10.25;3.72;;;18.40;99.90;;;;;;5009404;28;20041;-85
2022/10/26 11:11:21;;;;;;;10.27;3.67;;;18.50;99.90;;;;;;4989691;28;20045;-85
2022/10/26 11:14:08;;;;;;;8.70;3.17;;;18.70;99.90;;;;;;4984239;28;20030;-85
2022/10/26 11:16:47;;;;;;;9.90;3.58;;;18.80;99.90;;;;;;5007137;28;20404;-85
2022/10/26 11:19:31;;;;;;;9.18;3.47;;;18.90;99.90;;;;;;5051573;28;20049;-85
2022/10/26 11:21:57;;;;;;;9.98;3.50;;;19.00;99.90;;;;;;5067575;28;20036;-85
2022/10/26 11:24:48;;;;;;;9.75;3.40;;;19.00;99.90;;;;;;5051855;28;20390;-85
2022/10/26 11:27:16;;;;;;;8.80;2.85;;;19.10;99.90;;;;;;5067029;28;20080;-85
2022/10/26 11:30:05;;;;;;;9.13;3.33;;;19.10;99.90;;;;;;5068719;28;20471;-85
2022/10/26 11:33:00;;;;;;;10.30;3.42;;;19.20;99.90;;;;;;5048913;28;20044;-85
2022/10/26 11:35:45;;;;;;;9.50;3.00;;;19.30;99.90;;;;;;5049833;28;20701;-85
2022/10/26 11:38:32;;;;;;;10.70;4.15;;;19.30;99.90;;;;;;5065573;28;20041;-85
2022/10/26 11:41:37;;;;;;;9.57;3.22;;;19.40;99.90;;;;;;5051161;28;20060;-85
2022/10/26 11:44:22;;;;;;;10.27;3.45;;;19.40;99.90;;;;;;5007874;28;20094;-85
2022/10/26 11:46:53;;;;;;;9.95;3.13;;;19.40;99.90;;;;;;5049537;28;20135;-85
2022/10/26 11:49:48;;;;;;;10.02;3.35;;;19.50;99.90;;;;;;5068772;28;20075;-85
2022/10/26 11:52:20;;;;;;;10.35;3.30;;;19.50;99.90;;;;;;5046280;28;20032;-85
2022/10/26 11:54:50;;;;;;;7.82;3.05;;;19.50;99.90;;;;;;5069006;28;20047;-85
2022/10/26 11:57:17;;;;;;;10.55;3.47;;;19.50;99.90;;;;;;5051743;28;20070;-85
2022/10/26 11:59:48;;;;;;;9.60;3.40;;;19.50;99.90;;;;;;5069055;28;20039;-85
2022/10/26 12:02:20;;;;;;;10.70;3.42;;;19.60;99.90;;;;;;5051319;28;20032;-85
2022/10/26 12:04:51;;;;;;;9.32;3.13;;;19.70;99.90;;;;;;5052104;28;20036;-85
2022/10/26 12:07:30;;;;;;;11.00;3.70;;;19.80;99.90;;;;;;5068989;28;20436;-85
2022/10/26 12:09:57;;;;;;;11.23;3.33;;;19.90;99.90;;;;;;5067791;28;20621;-85
2022/10/26 12:12:34;;;;;;;9.20;3.50;;;20.00;99.90;;;;;;5067677;28;20067;-85
2022/10/26 12:15:17;;;;;;;9.63;3.72;;;20.10;99.90;;;;;;5064979;28;20059;-85
2022/10/26 12:17:49;;;;;;;10.70;3.55;;;20.20;99.90;;;;;;5068114;28;20036;-85
2022/10/26 12:20:20;;;;;;;10.65;3.45;;;20.20;99.90;;;;;;5055288;28;20045;-85
2022/10/26 12:22:46;;;;;;;9.77;3.33;;;20.20;99.90;;;;;;5071245;28;20036;-85
2022/10/26 12:25:15;;;;;;;9.30;3.50;;;20.10;99.90;;;;;;5071986;28;20051;-85
2022/10/26 12:27:40;;;;;;;10.35;3.78;;;20.00;99.90;;;;;;5053143;28;20068;-85
2022/10/26 12:30:18;;;;;;;9.55;3.22;;;20.00;99.90;;;;;;5055061;28;20144;-85
2022/10/26 12:32:43;;;;;;;9.13;3.17;;;20.10;99.90;;;;;;5068291;28;20119;-85
2022/10/26 12:35:31;;;;;;;9.50;3.30;;;20.10;99.90;;;;;;5072363;28;20183;-85
2022/10/26 12:37:58;;;;;;;8.80;3.25;;;20.40;99.90;;;;;;5052806;28;20528;-85
2022/10/26 12:40:29;;;;;;;10.40;3.55;;;20.70;99.90;;;;;;5071723;28;20040;-85
2022/10/26 12:42:55;;;;;;;12.43;3.92;;;20.90;99.90;;;;;;5053782;28;20097;-85
2022/10/26 12:45:21;;;;;;;11.00;3.92;;;21.00;99.90;;;;;;5072914;28;20044;-85
2022/10/26 12:47:47;;;;;;;10.13;3.67;;;21.10;99.90;;;;;;5071443;28;20053;-85
2022/10/26 12:50:12;;;;;;;9.85;3.70;;;21.20;99.90;;;;;;5054211;28;20051;-85
2022/10/26 12:52:55;;;;;;;11.63;3.75;;;21.40;99.90;;;;;;5070788;28;20383;-85
2022/10/26 12:55:26;;;;;;;;;;;21.60;99.90;;;;;;5072601;28;20624;-85
2022/10/26 12:58:07;;;;;;;8.25;3.30;;;21.90;99.90;;;;;;5068910;28;20378;-85
2022/10/26 13:00:40;;;;;;;10.35;3.65;;;22.50;99.90;;;;;;5054699;28;20040;-85
2022/10/26 13:03:32;;;;;;;9.00;3.55;;;22.90;98.20;;;;;;5053293;28;20048;-85